Time;durP1;ratioP1;P1;durP2;ratioP2;P2;SDS_P1;SDS_P2;PMS_P1;PMS_P2;Temp;Humidity;BMP_temperature;BMP_pressure;BME280_temperature;BME280_humidity;BME280_pressure;Samples;Min_cycle;Max_cycle;Signal;HPM_P1;HPM_P2
2022/05/26 00:01:54;;;;;;;8.25;1.10;;;12.90;99.90;;;;;;6305636;22;20018;-94
2022/05/26 00:04:20;;;;;;;6.78;1.10;;;12.90;99.90;;;;;;6305496;22;20003;-93
2022/05/26 00:06:46;;;;;;;3.72;1.20;;;12.90;99.90;;;;;;6305322;22;20007;-92
2022/05/26 00:09:11;;;;;;;5.75;1.02;;;12.90;99.90;;;;;;6305289;22;20095;-93
2022/05/26 00:11:38;;;;;;;8.95;1.25;;;12.80;99.90;;;;;;6305869;22;20053;-92
2022/05/26 00:14:08;;;;;;;7.78;1.30;;;12.80;99.90;;;;;;6305651;22;20463;-95
2022/05/26 00:16:42;;;;;;;5.68;1.10;;;12.80;99.90;;;;;;6306271;22;20014;-92
2022/05/26 00:19:08;;;;;;;8.02;1.50;;;12.80;99.90;;;;;;6305835;22;20017;-93
2022/05/26 00:21:34;;;;;;;10.48;1.98;;;12.80;99.90;;;;;;6306177;22;20035;-92
2022/05/26 00:24:00;;;;;;;10.80;1.73;;;12.80;99.90;;;;;;6305796;22;20003;-93
2022/05/26 00:26:27;;;;;;;6.00;1.00;;;12.80;99.90;;;;;;6305510;22;20037;-93
2022/05/26 00:28:53;;;;;;;8.68;1.20;;;12.80;99.90;;;;;;6305218;22;20031;-94
2022/05/26 00:31:19;;;;;;;6.72;1.35;;;12.80;99.90;;;;;;6305085;22;20007;-94
2022/05/26 00:33:44;;;;;;;4.78;0.90;;;12.80;99.90;;;;;;6305237;22;20008;-93
2022/05/26 00:36:12;;;;;;;6.25;0.88;;;12.80;99.90;;;;;;6304587;22;20007;-94
2022/05/26 00:38:38;;;;;;;9.70;1.10;;;12.80;99.90;;;;;;6305703;22;20011;-94
2022/05/26 00:41:07;;;;;;;4.88;0.90;;;12.70;99.90;;;;;;6305192;22;20057;-92
2022/05/26 00:43:33;;;;;;;3.65;1.10;;;12.70;99.90;;;;;;6304550;22;19999;-94
2022/05/26 00:47:00;;;;;;;5.60;1.10;;;12.70;99.90;;;;;;6305566;22;20057;-93
2022/05/26 00:49:42;;;;;;;5.32;1.10;;;12.70;99.90;;;;;;6258874;22;20050;-94
2022/05/26 00:52:12;;;;;;;6.53;1.33;;;12.70;99.90;;;;;;6310321;22;20015;-91
2022/05/26 00:54:39;;;;;;;5.00;0.90;;;12.70;99.90;;;;;;6310489;22;20019;-93
2022/05/26 00:57:14;;;;;;;4.53;1.23;;;12.70;99.90;;;;;;6310574;22;20010;-93
2022/05/26 00:59:49;;;;;;;4.20;1.10;;;12.60;99.90;;;;;;6310398;22;20002;-92
2022/05/26 01:02:22;;;;;;;7.72;0.90;;;12.70;99.90;;;;;;6311454;22;20434;-94
2022/05/26 01:04:52;;;;;;;5.70;1.25;;;12.60;99.90;;;;;;6311377;22;20028;-92
2022/05/26 01:07:24;;;;;;;7.13;1.10;;;12.60;99.90;;;;;;6310666;22;20007;-94
2022/05/26 01:09:50;;;;;;;7.85;0.98;;;12.60;99.90;;;;;;6319438;22;20007;-92
2022/05/26 01:12:16;;;;;;;7.53;1.45;;;12.60;99.90;;;;;;6323070;22;20079;-94
2022/05/26 01:14:52;;;;;;;8.88;0.98;;;12.60;99.90;;;;;;6319407;22;20014;-94
2022/05/26 01:17:45;;;;;;;8.55;1.02;;;12.50;99.90;;;;;;6318040;22;20026;-92
2022/05/26 01:20:16;;;;;;;6.80;0.88;;;12.50;99.90;;;;;;6312135;22;20045;-93
2022/05/26 01:23:03;;;;;;;4.05;0.98;;;12.50;99.90;;;;;;6312087;22;20010;-92
2022/05/26 01:25:50;;;;;;;9.90;1.30;;;12.50;99.90;;;;;;6311936;22;20038;-93
2022/05/26 01:28:43;;;;;;;9.68;1.65;;;12.50;99.90;;;;;;6311093;22;20006;-93
2022/05/26 01:31:27;;;;;;;3.50;0.80;;;12.50;99.90;;;;;;6310937;22;20021;-93
2022/05/26 01:34:17;;;;;;;8.85;1.33;;;12.40;99.90;;;;;;6336415;22;20065;-90
2022/05/26 01:37:01;;;;;;;6.07;1.20;;;12.40;99.90;;;;;;6311015;22;20018;-93
2022/05/26 01:39:37;;;;;;;6.63;1.02;;;12.40;99.90;;;;;;6342289;22;19998;-91
2022/05/26 01:42:02;;;;;;;7.47;1.02;;;12.30;99.90;;;;;;6318554;22;20114;-93
2022/05/26 01:44:49;;;;;;;5.72;1.00;;;12.30;99.90;;;;;;6311256;22;20006;-92
2022/05/26 01:47:30;;;;;;;3.97;0.98;;;12.20;99.90;;;;;;6310204;22;20418;-91
2022/05/26 01:50:05;;;;;;;7.22;1.05;;;12.20;99.90;;;;;;6309607;22;20018;-93
2022/05/26 01:52:43;;;;;;;4.53;1.02;;;12.10;99.90;;;;;;6310061;22;20025;-92
2022/05/26 01:55:11;;;;;;;3.95;0.90;;;12.10;99.90;;;;;;6309575;22;20516;-94
2022/05/26 01:57:40;;;;;;;8.88;1.00;;;12.10;99.90;;;;;;6309131;22;20137;-92
2022/05/26 02:00:10;;;;;;;4.90;1.55;;;12.10;99.90;;;;;;6309864;22;20040;-92
2022/05/26 02:02:39;;;;;;;;;;;12.00;99.90;;;;;;6310527;22;20011;-92
2022/05/26 02:05:10;;;;;;;2.72;0.60;;;12.00;99.90;;;;;;6310382;22;20329;-91
2022/05/26 02:07:41;;;;;;;5.07;0.52;;;11.90;99.90;;;;;;6310100;22;20011;-92
2022/05/26 02:10:10;;;;;;;;;;;11.90;99.90;;;;;;6310930;22;20002;-90
2022/05/26 02:13:08;;;;;;;5.00;0.90;;;11.90;99.90;;;;;;6310808;22;19902;-93
2022/05/26 02:15:36;;;;;;;4.35;0.85;;;11.90;99.90;;;;;;6310912;22;20014;-93
2022/05/26 02:18:12;;;;;;;4.20;0.95;;;11.80;99.90;;;;;;6310813;22;20003;-95
2022/05/26 02:20:50;;;;;;;5.93;1.27;;;11.80;99.90;;;;;;6309628;22;20014;-93
2022/05/26 02:23:30;;;;;;;6.45;2.10;;;11.80;99.90;;;;;;6310103;22;20014;-94
2022/05/26 02:25:57;;;;;;;2.25;1.00;;;11.80;99.90;;;;;;6309854;22;20006;-94
2022/05/26 02:28:23;;;;;;;7.57;1.17;;;11.80;99.90;;;;;;6310367;22;19999;-93
2022/05/26 02:30:50;;;;;;;8.13;2.65;;;11.80;99.90;;;;;;6337394;22;20003;-94
2022/05/26 02:33:18;;;;;;;3.92;1.08;;;11.80;99.90;;;;;;6311181;22;20003;-92
2022/05/26 02:35:50;;;;;;;6.32;0.80;;;11.70;99.90;;;;;;6313457;22;20035;-94
2022/05/26 02:38:22;;;;;;;3.20;1.13;;;11.70;99.90;;;;;;6313095;22;20007;-92
2022/05/26 02:40:49;;;;;;;6.07;1.35;;;11.70;99.90;;;;;;6312589;22;20060;-93
2022/05/26 02:43:26;;;;;;;7.13;1.02;;;11.70;99.90;;;;;;6312406;22;20006;-92
2022/05/26 02:45:57;;;;;;;9.48;1.35;;;11.70;99.90;;;;;;6312930;22;20006;-92
2022/05/26 02:48:29;;;;;;;4.82;1.00;;;11.70;99.90;;;;;;6311035;22;20002;-93
2022/05/26 02:51:11;;;;;;;5.47;0.90;;;11.70;99.90;;;;;;6306548;22;20010;-94
2022/05/26 02:54:15;;;;;;;3.53;0.80;;;11.70;99.90;;;;;;6306320;22;20045;-94
2022/05/26 02:56:51;;;;;;;5.32;1.15;;;11.70;99.90;;;;;;6305869;22;20007;-92
2022/05/26 02:59:26;;;;;;;5.57;1.13;;;11.70;99.90;;;;;;6306271;22;20367;-94
2022/05/26 03:02:10;;;;;;;7.55;1.05;;;11.70;99.90;;;;;;6306621;22;20346;-93
2022/05/26 03:04:49;;;;;;;4.50;0.90;;;11.70;99.90;;;;;;6306018;22;20000;-90
2022/05/26 03:07:22;;;;;;;3.45;0.80;;;11.70;99.90;;;;;;6306283;22;20439;-91
2022/05/26 03:09:48;;;;;;;3.78;0.85;;;11.70;99.90;;;;;;6306081;22;20004;-93
2022/05/26 03:12:29;;;;;;;3.40;0.80;;;11.70;99.90;;;;;;6306680;22;20009;-93
2022/05/26 03:14:55;;;;;;;5.82;1.05;;;11.70;99.90;;;;;;6306046;22;20019;-92
2022/05/26 03:17:21;;;;;;;6.82;0.80;;;11.70;99.90;;;;;;6306204;22;20007;-93
2022/05/26 03:19:47;;;;;;;4.55;0.90;;;11.60;99.90;;;;;;6306208;22;20007;-93
2022/05/26 03:22:13;;;;;;;7.18;0.82;;;11.60;99.90;;;;;;6305750;22;20334;-93
2022/05/26 03:24:39;;;;;;;7.38;0.88;;;11.60;99.90;;;;;;6305792;22;20003;-91
2022/05/26 03:27:05;;;;;;;10.50;1.58;;;11.60;99.90;;;;;;6306139;22;20039;-92
2022/05/26 03:29:31;;;;;;;7.57;0.88;;;11.60;99.90;;;;;;6309675;22;20009;-92
2022/05/26 03:31:57;;;;;;;4.60;0.95;;;11.50;99.90;;;;;;6319695;22;20022;-92
2022/05/26 03:42:42;;;;;;;4.65;0.82;;;11.50;99.90;;;;;;6306707;22;20065;-93
2022/05/26 03:45:09;;;;;;;7.15;2.38;;;11.50;99.90;;;;;;6305375;22;20547;-92
2022/05/26 03:47:34;;;;;;;4.07;0.75;;;11.50;99.90;;;;;;6305525;22;20347;-93
2022/05/26 03:50:00;;;;;;;3.88;0.90;;;11.50;99.90;;;;;;6321356;22;20022;-93
2022/05/26 03:52:26;;;;;;;3.58;0.80;;;11.50;99.90;;;;;;6307182;22;20011;-94
2022/05/26 03:54:51;;;;;;;3.35;0.80;;;11.50;99.90;;;;;;6307929;22;20508;-93
2022/05/26 03:57:24;;;;;;;8.70;1.00;;;11.50;99.90;;;;;;6308664;22;20035;-94
2022/05/26 03:59:50;;;;;;;4.97;1.35;;;11.50;99.90;;;;;;6310969;22;20003;-94
2022/05/26 04:02:17;;;;;;;4.18;1.10;;;11.50;99.90;;;;;;6313824;22;20004;-92
2022/05/26 04:04:44;;;;;;;8.05;0.98;;;11.50;99.90;;;;;;6314558;22;20064;-93
2022/05/26 04:07:11;;;;;;;12.45;2.10;;;11.40;99.90;;;;;;6315964;22;20050;-94
2022/05/26 04:09:36;;;;;;;4.55;1.00;;;11.50;99.90;;;;;;6312743;22;20456;-92
2022/05/26 04:12:05;;;;;;;5.20;1.08;;;11.50;99.90;;;;;;6310105;22;20003;-93
2022/05/26 04:14:31;;;;;;;2.63;0.55;;;11.50;99.90;;;;;;6306821;22;20055;-92
2022/05/26 04:17:01;;;;;;;2.17;1.40;;;11.50;99.90;;;;;;6306083;22;20003;-93
2022/05/26 04:19:27;;;;;;;4.23;0.77;;;11.50;99.90;;;;;;6305755;22;20034;-93
2022/05/26 04:24:37;;;;;;;5.88;0.73;;;11.50;99.90;;;;;;6307343;22;20063;-94
2022/05/26 04:27:04;;;;;;;1.95;0.45;;;11.50;99.90;;;;;;6306001;22;19999;-92
2022/05/26 04:29:30;;;;;;;3.13;0.60;;;11.50;99.90;;;;;;6305768;22;20038;-92
2022/05/26 04:31:56;;;;;;;4.85;0.90;;;11.50;99.90;;;;;;6305883;22;20000;-92
2022/05/26 04:34:22;;;;;;;2.80;0.40;;;11.50;99.90;;;;;;6305652;22;20018;-91
2022/05/26 04:36:47;;;;;;;6.88;0.93;;;11.50;99.90;;;;;;6305907;22;20090;-93
2022/05/26 04:39:14;;;;;;;4.28;0.77;;;11.50;99.90;;;;;;6305937;22;20116;-93
2022/05/26 04:41:42;;;;;;;5.90;0.80;;;11.50;99.90;;;;;;6303809;22;20031;-93
2022/05/26 04:44:09;;;;;;;4.63;0.85;;;11.50;99.90;;;;;;6305416;22;20003;-93
2022/05/26 04:46:36;;;;;;;7.32;1.33;;;11.50;99.90;;;;;;6305430;22;19999;-93
2022/05/26 04:49:03;;;;;;;9.55;0.82;;;11.50;99.90;;;;;;6311175;22;20040;-91
2022/05/26 04:51:29;;;;;;;5.80;0.60;;;11.50;99.90;;;;;;6311458;22;19999;-93
2022/05/26 04:53:55;;;;;;;4.15;0.90;;;11.60;99.90;;;;;;6312814;22;20026;-93
2022/05/26 04:56:22;;;;;;;2.55;0.47;;;11.60;99.90;;;;;;6311998;22;20007;-93
2022/05/26 04:58:50;;;;;;;5.40;0.80;;;11.60;99.90;;;;;;6312739;22;20022;-94
2022/05/26 05:01:17;;;;;;;3.78;0.73;;;11.60;99.90;;;;;;6313172;22;20010;-93
2022/05/26 05:03:44;;;;;;;5.60;1.77;;;11.60;99.90;;;;;;6312701;22;20132;-89
2022/05/26 05:06:10;;;;;;;2.92;0.75;;;11.60;99.90;;;;;;6314303;22;20003;-93
2022/05/26 05:08:36;;;;;;;4.95;1.60;;;11.60;99.90;;;;;;6312923;22;19994;-92
2022/05/26 05:11:02;;;;;;;7.57;1.05;;;11.60;99.90;;;;;;6340277;22;20011;-94
2022/05/26 05:13:28;;;;;;;4.03;1.00;;;11.60;99.90;;;;;;6312271;22;20017;-91
2022/05/26 05:16:10;;;;;;;5.28;0.93;;;11.60;99.90;;;;;;6312954;22;20751;-90
2022/05/26 05:18:36;;;;;;;5.68;0.73;;;11.60;99.90;;;;;;6312649;22;20010;-93
2022/05/26 05:21:09;;;;;;;3.42;0.93;;;11.60;99.90;;;;;;6319526;22;20007;-91
2022/05/26 05:23:39;;;;;;;6.57;0.93;;;11.60;99.90;;;;;;6324047;22;20441;-92
2022/05/26 05:26:10;;;;;;;2.35;0.80;;;11.60;99.90;;;;;;6311710;22;20002;-90
2022/05/26 05:28:39;;;;;;;7.38;2.25;;;11.70;99.90;;;;;;6310411;22;20359;-91
2022/05/26 05:31:19;;;;;;;4.72;1.08;;;11.70;99.90;;;;;;6310447;22;20373;-92
2022/05/26 05:33:59;;;;;;;4.22;0.70;;;11.80;99.90;;;;;;6310202;22;20015;-92
2022/05/26 05:36:31;;;;;;;3.88;0.90;;;11.80;99.90;;;;;;6310616;22;19998;-91
2022/05/26 05:38:58;;;;;;;6.55;0.90;;;11.80;99.90;;;;;;6310623;22;19999;-92
2022/05/26 05:41:24;;;;;;;3.85;0.60;;;11.80;99.90;;;;;;6310483;22;20034;-92
2022/05/26 05:43:50;;;;;;;3.78;0.80;;;11.90;99.90;;;;;;6310756;22;20010;-92
2022/05/26 05:46:19;;;;;;;3.75;1.27;;;12.00;99.90;;;;;;6310369;22;20007;-91
2022/05/26 05:48:45;;;;;;;6.93;0.90;;;12.00;99.90;;;;;;6308580;22;20429;-92
2022/05/26 05:51:12;;;;;;;4.10;0.93;;;12.00;99.90;;;;;;6305328;22;20056;-94
2022/05/26 05:53:38;;;;;;;4.55;0.98;;;12.00;99.90;;;;;;6305592;22;20034;-93
2022/05/26 05:56:04;;;;;;;6.43;1.00;;;12.00;99.90;;;;;;6306144;22;20003;-94
2022/05/26 05:58:30;;;;;;;7.03;1.13;;;12.00;99.90;;;;;;6305771;22;20091;-92
2022/05/26 06:00:56;;;;;;;6.05;0.93;;;12.00;99.90;;;;;;6305698;22;20008;-93
2022/05/26 06:03:22;;;;;;;2.42;0.77;;;12.10;99.90;;;;;;6304894;22;20015;-95
2022/05/26 06:05:48;;;;;;;3.78;1.00;;;12.10;99.90;;;;;;6305342;22;20015;-94
2022/05/26 06:08:14;;;;;;;4.20;0.70;;;12.10;99.90;;;;;;6305296;22;20423;-93
2022/05/26 06:10:40;;;;;;;5.00;1.20;;;12.10;99.90;;;;;;6306217;22;20039;-93
2022/05/26 06:13:06;;;;;;;7.63;1.00;;;12.10;99.90;;;;;;6305405;22;20038;-94
2022/05/26 06:15:33;;;;;;;5.00;1.08;;;12.10;99.90;;;;;;6305485;22;20030;-91
2022/05/26 06:17:59;;;;;;;7.07;1.05;;;12.10;99.90;;;;;;6307138;22;20003;-95
2022/05/26 06:20:26;;;;;;;3.78;0.80;;;12.20;99.90;;;;;;6312279;22;20007;-93
2022/05/26 06:22:52;;;;;;;3.85;1.00;;;12.10;99.90;;;;;;6310374;22;20004;-93
2022/05/26 06:25:20;;;;;;;8.43;0.98;;;12.10;99.90;;;;;;6308984;22;19999;-95
2022/05/26 06:30:30;;;;;;;5.78;1.50;;;12.20;99.90;;;;;;6313820;22;20019;-95
2022/05/26 06:38:37;;;;;;;6.63;1.17;;;12.10;99.90;;;;;;6320377;22;20485;-92
2022/05/26 06:43:51;;;;;;;4.55;1.13;;;12.10;99.90;;;;;;6332056;22;20010;-94
2022/05/26 06:46:18;;;;;;;5.25;1.00;;;12.10;99.90;;;;;;6325588;22;20010;-90
2022/05/26 06:48:44;;;;;;;3.38;1.38;;;12.10;99.90;;;;;;6336659;22;19995;-93
2022/05/26 06:51:10;;;;;;;5.60;1.20;;;12.10;99.90;;;;;;6338172;22;20022;-94
2022/05/26 06:53:36;;;;;;;13.80;1.65;;;12.10;99.90;;;;;;6321496;22;20056;-94
2022/05/26 06:56:02;;;;;;;7.80;1.80;;;12.00;99.90;;;;;;6329122;22;20060;-93
2022/05/26 06:58:31;;;;;;;8.05;1.40;;;12.00;99.90;;;;;;6327066;22;20003;-94
2022/05/26 07:00:59;;;;;;;2.88;1.38;;;12.00;99.90;;;;;;6329188;22;19999;-90
2022/05/26 07:03:25;;;;;;;4.00;1.33;;;12.10;99.90;;;;;;6335178;22;20048;-91
2022/05/26 07:05:52;;;;;;;6.15;2.17;;;12.10;99.90;;;;;;6357967;22;20007;-91
2022/05/26 07:08:19;;;;;;;6.90;1.50;;;12.10;99.90;;;;;;6335835;22;20007;-92
2022/05/26 07:10:50;;;;;;;3.88;1.27;;;12.10;99.90;;;;;;6336462;22;20054;-87
2022/05/26 07:13:16;;;;;;;5.75;1.33;;;12.10;99.90;;;;;;6335428;22;20002;-94
2022/05/26 07:15:42;;;;;;;5.20;2.00;;;12.00;99.90;;;;;;6327340;22;20014;-94
2022/05/26 07:18:09;;;;;;;8.75;2.58;;;12.00;99.90;;;;;;6318655;22;19999;-95
2022/05/26 07:24:03;;;;;;;3.92;1.48;;;12.00;99.90;;;;;;5113799;27;20392;-89
2022/05/26 07:26:32;;;;;;;6.57;2.10;;;12.00;99.90;;;;;;5116201;27;20941;-91
2022/05/26 07:29:01;;;;;;;5.22;1.75;;;12.00;99.90;;;;;;5114507;28;20086;-93
2022/05/26 07:31:27;;;;;;;5.15;1.30;;;12.00;99.90;;;;;;5110298;28;20028;-94
2022/05/26 07:33:52;;;;;;;4.80;1.33;;;12.00;99.90;;;;;;5100776;28;20028;-96
2022/05/26 07:41:52;;;;;;;5.80;1.42;;;12.20;99.90;;;;;;5103342;28;20101;-92
2022/05/26 07:44:17;;;;;;;;;;;12.20;99.90;;;;;;5077137;28;20118;-94
2022/05/26 07:46:43;;;;;;;5.90;1.63;;;12.30;99.90;;;;;;5076434;28;19952;-93
2022/05/26 07:49:09;;;;;;;5.78;1.48;;;12.40;99.90;;;;;;5080526;28;20031;-94
2022/05/26 07:51:35;;;;;;;3.47;1.17;;;12.50;99.90;;;;;;5078454;28;20056;-86
2022/05/26 07:54:00;;;;;;;4.97;1.40;;;12.50;99.90;;;;;;5083440;28;20079;-94
2022/05/26 07:56:34;;;;;;;4.07;1.95;;;12.50;99.90;;;;;;5082632;28;20033;-96
2022/05/26 07:59:00;;;;;;;4.28;0.93;;;12.60;99.90;;;;;;5080094;28;20017;-96
2022/05/26 08:01:26;;;;;;;4.47;1.38;;;12.60;99.90;;;;;;5081843;28;20138;-95
2022/05/26 08:03:53;;;;;;;2.97;1.17;;;12.70;99.90;;;;;;5085197;28;20040;-96
2022/05/26 08:06:19;;;;;;;6.05;1.08;;;12.80;99.90;;;;;;5083932;28;20025;-96
2022/05/26 08:08:45;;;;;;;6.18;1.23;;;12.90;99.90;;;;;;5086939;28;20044;-96
2022/05/26 08:11:11;;;;;;;6.10;1.00;;;13.00;99.90;;;;;;5091634;28;20020;-96
2022/05/26 08:13:37;;;;;;;3.00;0.90;;;13.20;99.90;;;;;;5089864;28;20028;-96
2022/05/26 08:16:05;;;;;;;1.55;0.60;;;13.30;99.90;;;;;;5081324;28;20032;-93
2022/05/26 08:18:32;;;;;;;4.18;0.70;;;13.40;99.90;;;;;;5080105;28;20037;-95
2022/05/26 08:21:12;;;;;;;2.80;0.40;;;13.60;99.90;;;;;;5083737;28;20028;-96
2022/05/26 08:23:39;;;;;;;0.88;0.40;;;13.70;99.90;;;;;;5083838;28;20060;-95
2022/05/26 08:26:06;;;;;;;2.92;1.10;;;13.80;99.90;;;;;;5087782;28;20025;-95
2022/05/26 08:28:33;;;;;;;2.03;0.88;;;13.80;99.90;;;;;;5086563;28;20029;-92
2022/05/26 08:31:00;;;;;;;2.35;0.30;;;13.80;99.90;;;;;;5100747;28;20116;-96
2022/05/26 08:33:26;;;;;;;1.63;0.68;;;13.90;99.90;;;;;;5092613;28;20036;-96
2022/05/26 08:36:04;;;;;;;1.42;0.50;;;13.90;99.90;;;;;;5070438;28;20021;-96
2022/05/26 08:38:30;;;;;;;1.33;0.40;;;13.90;99.90;;;;;;5071777;28;20037;-96
2022/05/26 08:40:56;;;;;;;2.20;0.55;;;13.90;99.90;;;;;;5070071;28;20044;-94
2022/05/26 08:43:29;;;;;;;2.13;0.50;;;14.00;99.90;;;;;;5063235;28;20032;-96
2022/05/26 08:45:55;;;;;;;0.80;0.35;;;14.10;99.90;;;;;;5060128;28;20060;-95
2022/05/26 08:48:56;;;;;;;1.23;0.50;;;14.10;99.90;;;;;;5067737;28;20018;-94
2022/05/26 08:51:38;;;;;;;6.63;0.70;;;14.20;99.90;;;;;;5080776;28;20051;-96
2022/05/26 08:54:06;;;;;;;2.58;0.60;;;14.20;99.90;;;;;;5056854;28;20036;-95
2022/05/26 08:56:32;;;;;;;1.58;0.40;;;14.20;99.90;;;;;;5059742;28;20126;-96
2022/05/26 08:59:08;;;;;;;1.80;0.50;;;14.20;99.90;;;;;;5076945;28;20035;-93
2022/05/26 09:01:33;;;;;;;1.88;0.32;;;14.20;99.90;;;;;;5065034;28;20052;-93
2022/05/26 09:04:00;;;;;;;1.55;0.45;;;14.30;99.90;;;;;;5089833;28;20119;-95
2022/05/26 09:06:26;;;;;;;1.35;0.50;;;14.30;99.90;;;;;;5060085;28;20033;-94
2022/05/26 09:14:31;;;;;;;0.80;0.38;;;14.40;99.90;;;;;;5055677;28;20542;-95
2022/05/26 09:17:04;;;;;;;3.40;0.45;;;14.40;99.90;;;;;;5055716;28;20087;-94
2022/05/26 09:19:43;;;;;;;3.40;0.50;;;14.50;99.90;;;;;;5059848;28;20045;-93
2022/05/26 09:22:29;;;;;;;3.03;0.50;;;14.50;99.90;;;;;;5056881;28;20047;-94
2022/05/26 09:24:56;;;;;;;1.75;0.95;;;14.60;99.90;;;;;;5057355;28;20013;-94
2022/05/26 09:27:34;;;;;;;0.50;0.30;;;14.70;99.90;;;;;;5058101;28;20079;-94
2022/05/26 09:30:23;;;;;;;1.92;0.60;;;14.70;99.90;;;;;;5053246;28;20089;-95
2022/05/26 09:32:50;;;;;;;2.00;0.60;;;14.70;99.90;;;;;;5088861;28;20032;-94
2022/05/26 09:35:19;;;;;;;1.30;0.28;;;14.70;99.90;;;;;;5057674;28;20021;-94
2022/05/26 09:37:50;;;;;;;1.38;0.52;;;14.70;99.90;;;;;;5054301;28;20041;-91
2022/05/26 09:40:25;;;;;;;2.22;0.65;;;14.80;99.90;;;;;;5058372;28;20021;-93
2022/05/26 09:43:02;;;;;;;2.28;0.70;;;14.80;99.90;;;;;;5064414;28;20029;-95
2022/05/26 09:45:54;;;;;;;2.30;0.90;;;14.80;99.90;;;;;;5072642;28;20096;-95
2022/05/26 09:48:26;;;;;;;4.20;0.90;;;14.80;99.90;;;;;;5071862;28;20171;-95
2022/05/26 09:50:53;;;;;;;1.88;0.80;;;14.90;99.90;;;;;;5071673;28;20081;-95
2022/05/26 09:53:40;;;;;;;1.90;0.70;;;14.90;99.90;;;;;;5072427;28;20037;-94
2022/05/26 09:56:10;;;;;;;2.33;1.00;;;14.90;99.90;;;;;;5071715;28;20029;-94
2022/05/26 09:58:42;;;;;;;1.58;0.85;;;14.90;99.90;;;;;;5071513;28;20005;-95
2022/05/26 10:01:26;;;;;;;4.20;0.93;;;14.90;99.90;;;;;;5065655;28;20033;-95
2022/05/26 10:04:34;;;;;;;3.60;1.10;;;15.00;99.90;;;;;;5057858;28;20044;-96
2022/05/26 10:07:09;;;;;;;3.78;1.17;;;15.00;99.90;;;;;;5015023;28;20038;-95
2022/05/26 10:09:47;;;;;;;4.53;0.95;;;15.10;99.90;;;;;;5020174;28;20042;-95
2022/05/26 10:12:42;;;;;;;3.15;1.00;;;15.10;99.90;;;;;;5001647;28;20054;-92
2022/05/26 10:15:22;;;;;;;5.60;1.20;;;15.20;99.90;;;;;;5019599;28;20034;-93
2022/05/26 10:18:15;;;;;;;5.45;1.15;;;15.30;99.90;;;;;;5014371;28;20038;-93
2022/05/26 10:20:59;;;;;;;2.10;0.70;;;15.30;99.90;;;;;;5017293;28;20013;-95
2022/05/26 10:23:31;;;;;;;2.78;0.80;;;15.40;99.90;;;;;;5015013;28;20132;-95
2022/05/26 10:26:31;;;;;;;2.90;0.80;;;15.50;99.90;;;;;;4997139;28;20128;-92
2022/05/26 10:29:27;;;;;;;3.30;0.73;;;15.60;99.90;;;;;;4999815;28;20209;-95
2022/05/26 10:32:08;;;;;;;0.80;0.60;;;15.70;99.90;;;;;;5018092;28;20117;-93
2022/05/26 10:34:55;;;;;;;2.97;0.73;;;15.70;99.90;;;;;;5014108;28;20029;-94
2022/05/26 10:37:48;;;;;;;1.83;0.70;;;15.70;99.90;;;;;;5015297;28;20044;-94
2022/05/26 10:40:28;;;;;;;2.65;0.90;;;15.70;99.90;;;;;;5002862;28;20060;-95
2022/05/26 10:43:03;;;;;;;3.85;1.30;;;15.70;99.90;;;;;;5002353;28;20224;-95
2022/05/26 10:45:38;;;;;;;4.88;0.88;;;15.70;99.90;;;;;;5057749;28;20021;-96
2022/05/26 10:48:23;;;;;;;2.17;0.85;;;15.70;99.90;;;;;;5062594;28;20339;-94
2022/05/26 10:51:08;;;;;;;3.50;1.05;;;15.70;99.90;;;;;;5062471;28;20059;-95
2022/05/26 10:53:41;;;;;;;2.97;0.93;;;15.70;99.90;;;;;;5066189;28;20009;-93
2022/05/26 10:56:31;;;;;;;3.92;1.05;;;15.70;99.90;;;;;;5067889;28;20044;-95
2022/05/26 10:59:19;;;;;;;1.98;0.95;;;15.60;99.90;;;;;;5074243;28;20025;-92
2022/05/26 11:02:05;;;;;;;4.63;0.90;;;15.70;99.90;;;;;;5075499;28;20029;-94
2022/05/26 11:05:00;;;;;;;7.38;1.42;;;15.70;99.90;;;;;;5041617;28;20045;-95
2022/05/26 11:07:30;;;;;;;5.13;1.38;;;15.80;99.90;;;;;;5050659;28;20108;-94
2022/05/26 11:10:02;;;;;;;5.75;1.35;;;15.80;99.90;;;;;;5063516;28;20481;-94
2022/05/26 11:12:33;;;;;;;8.00;1.48;;;15.80;99.90;;;;;;5066107;28;20033;-93
2022/05/26 11:18:04;;;;;;;4.03;1.30;;;15.90;99.90;;;;;;5058121;28;20128;-95
2022/05/26 11:20:35;;;;;;;4.68;1.95;;;16.00;99.90;;;;;;5057613;28;20021;-93
2022/05/26 11:23:04;;;;;;;;;;;16.10;99.90;;;;;;5056578;28;20045;-95
2022/05/26 11:25:34;;;;;;;5.75;1.50;;;16.10;99.90;;;;;;5054286;28;19909;-94
2022/05/26 11:28:04;;;;;;;5.57;1.30;;;16.10;99.90;;;;;;5053326;28;20025;-93
2022/05/26 11:36:44;;;;;;;6.57;1.38;;;16.30;99.90;;;;;;5056856;28;20024;-94
2022/05/26 11:39:37;;;;;;;6.22;1.58;;;16.40;99.90;;;;;;5060391;28;20634;-93
2022/05/26 11:42:04;;;;;;;6.13;1.45;;;16.40;99.90;;;;;;5060244;28;20084;-95
2022/05/26 11:44:33;;;;;;;6.32;1.13;;;16.50;99.90;;;;;;5054326;28;20487;-94
2022/05/26 11:47:21;;;;;;;7.63;1.17;;;16.50;99.90;;;;;;5053152;28;20067;-94
2022/05/26 11:49:47;;;;;;;5.18;1.25;;;16.50;99.90;;;;;;5053972;28;20128;-93
2022/05/26 11:52:34;;;;;;;5.93;1.05;;;16.60;99.90;;;;;;5062550;28;20094;-93
2022/05/26 11:55:02;;;;;;;4.97;1.13;;;16.70;99.90;;;;;;5058484;28;20048;-93
2022/05/26 11:57:48;;;;;;;5.55;1.33;;;16.70;99.90;;;;;;5056784;28;20458;-94
2022/05/26 12:00:39;;;;;;;7.15;1.20;;;16.80;99.90;;;;;;5055996;28;20025;-93
2022/05/26 12:03:21;;;;;;;3.03;1.00;;;16.80;99.90;;;;;;5056860;28;20549;-94
2022/05/26 12:05:57;;;;;;;8.30;1.27;;;16.80;99.90;;;;;;5057459;28;20037;-93
2022/05/26 12:08:51;;;;;;;6.68;1.52;;;16.70;99.90;;;;;;5058682;28;20025;-94
2022/05/26 12:11:19;;;;;;;5.20;1.30;;;16.60;99.90;;;;;;5063665;28;20035;-92
2022/05/26 12:14:02;;;;;;;3.50;1.10;;;16.60;99.90;;;;;;5062628;28;20032;-94
2022/05/26 12:16:30;;;;;;;6.38;1.10;;;16.50;99.90;;;;;;5062372;28;20029;-95
2022/05/26 12:18:58;;;;;;;3.42;1.30;;;16.50;99.90;;;;;;5061163;28;20051;-96
2022/05/26 12:21:27;;;;;;;7.05;1.83;;;16.50;99.90;;;;;;5067942;28;20084;-92
2022/05/26 12:23:53;;;;;;;5.82;1.30;;;16.50;99.90;;;;;;5069367;28;20033;-93
2022/05/26 12:26:28;;;;;;;6.20;1.27;;;16.60;99.90;;;;;;5073067;28;20029;-95
2022/05/26 12:28:55;;;;;;;1.90;0.68;;;16.70;99.90;;;;;;5066171;28;20025;-94
2022/05/26 12:31:21;;;;;;;6.22;1.33;;;16.70;99.90;;;;;;5065026;28;20478;-93
2022/05/26 12:33:57;;;;;;;9.70;1.70;;;16.80;99.90;;;;;;5072812;28;20031;-89
2022/05/26 12:36:43;;;;;;;4.93;1.20;;;16.90;99.90;;;;;;5075663;28;20093;-95
2022/05/26 12:39:53;;;;;;;3.58;1.00;;;17.00;99.90;;;;;;5069330;28;20044;-95
2022/05/26 12:42:32;;;;;;;4.40;1.17;;;17.20;99.90;;;;;;5068007;28;20013;-94
2022/05/26 12:45:36;;;;;;;5.05;1.15;;;17.30;99.90;;;;;;5072113;28;20029;-93
2022/05/26 12:48:25;;;;;;;2.83;0.95;;;17.40;99.90;;;;;;5062164;28;20017;-94
2022/05/26 12:50:52;;;;;;;3.10;1.30;;;17.40;99.90;;;;;;5062069;28;20029;-96
2022/05/26 12:53:32;;;;;;;5.32;1.30;;;17.30;99.90;;;;;;5063429;28;20049;-95
2022/05/26 12:56:04;;;;;;;3.97;1.10;;;17.20;99.90;;;;;;5080645;28;20029;-94
2022/05/26 12:58:38;;;;;;;3.25;1.08;;;17.20;99.90;;;;;;5071170;28;20025;-95
2022/05/26 13:01:12;;;;;;;5.57;1.25;;;17.20;99.90;;;;;;5094856;28;20037;-94
2022/05/26 13:03:42;;;;;;;3.30;1.63;;;17.10;99.90;;;;;;5070689;28;20029;-95
2022/05/26 13:06:15;;;;;;;5.97;1.38;;;17.00;99.90;;;;;;5070354;28;20035;-96
2022/05/26 13:08:53;;;;;;;4.07;1.60;;;16.90;99.90;;;;;;5049792;28;20010;-93
2022/05/26 13:11:26;;;;;;;4.72;1.45;;;16.80;99.90;;;;;;5041026;28;20029;-92
2022/05/26 13:13:57;;;;;;;3.08;1.00;;;16.70;99.90;;;;;;5043874;28;20034;-95
2022/05/26 13:16:34;;;;;;;2.45;1.20;;;16.60;99.90;;;;;;5056997;28;20005;-92
2022/05/26 13:19:10;;;;;;;4.93;1.50;;;16.50;99.90;;;;;;5078586;28;20032;-88
2022/05/26 13:21:37;;;;;;;1.52;0.85;;;16.40;99.90;;;;;;5077810;28;20013;-92
2022/05/26 13:24:03;;;;;;;2.75;1.20;;;16.40;99.90;;;;;;5070554;28;20052;-92
2022/05/26 13:26:30;;;;;;;4.15;1.17;;;16.30;99.90;;;;;;5072747;28;20091;-92
2022/05/26 13:28:59;;;;;;;3.45;1.77;;;16.20;99.90;;;;;;5077004;28;20027;-92
2022/05/26 13:34:13;;;;;;;3.05;1.27;;;15.90;99.90;;;;;;5076854;28;20086;-95
2022/05/26 13:36:45;;;;;;;2.92;1.25;;;15.80;99.90;;;;;;5076111;28;20025;-91
2022/05/26 13:39:20;;;;;;;7.65;1.35;;;15.70;99.90;;;;;;5076664;28;20017;-93
2022/05/26 13:41:48;;;;;;;3.80;1.38;;;15.50;99.90;;;;;;5072779;28;20029;-95
2022/05/26 13:44:18;;;;;;;3.50;1.60;;;15.50;99.90;;;;;;5074177;28;20116;-93
2022/05/26 13:46:49;;;;;;;5.20;1.40;;;15.40;99.90;;;;;;5068862;28;20017;-91
2022/05/26 13:49:43;;;;;;;3.67;1.30;;;15.40;99.90;;;;;;5075393;28;20032;-95
2022/05/26 13:52:15;;;;;;;4.63;1.50;;;15.40;99.90;;;;;;5076301;28;20478;-94
2022/05/26 13:54:46;;;;;;;4.85;2.08;;;15.50;99.90;;;;;;5067107;28;20039;-96
2022/05/26 13:57:29;;;;;;;4.63;1.40;;;15.60;99.90;;;;;;5074000;28;20470;-94
2022/05/26 14:00:24;;;;;;;1.80;1.33;;;15.70;99.90;;;;;;5066593;28;20048;-94
2022/05/26 14:02:55;;;;;;;4.65;2.10;;;15.90;99.90;;;;;;5060721;28;20028;-95
2022/05/26 14:05:25;;;;;;;5.43;2.03;;;16.00;99.90;;;;;;5072766;28;20036;-95